sensor_id;sensor_type;location;lat;lon;timestamp;P1;durP1;ratioP1;P2;durP2;ratioP2
68273;SDS011;55104;47.356;19.448;2023-04-15T00:00:22;5.55;;;1.50;;
68273;SDS011;55104;47.356;19.448;2023-04-15T00:03:24;2.35;;;0.93;;
68273;SDS011;55104;47.356;19.448;2023-04-15T00:06:26;8.63;;;1.95;;
68273;SDS011;55104;47.356;19.448;2023-04-15T00:09:29;5.28;;;1.42;;
68273;SDS011;55104;47.356;19.448;2023-04-15T00:12:31;5.10;;;1.45;;
68273;SDS011;55104;47.356;19.448;2023-04-15T00:15:33;6.67;;;1.60;;
68273;SDS011;55104;47.356;19.448;2023-04-15T00:18:35;2.70;;;1.08;;
68273;SDS011;55104;47.356;19.448;2023-04-15T00:21:38;2.90;;;1.00;;
68273;SDS011;55104;47.356;19.448;2023-04-15T00:24:40;5.57;;;1.70;;
68273;SDS011;55104;47.356;19.448;2023-04-15T00:27:43;4.72;;;2.03;;
68273;SDS011;55104;47.356;19.448;2023-04-15T00:30:45;6.30;;;1.52;;
68273;SDS011;55104;47.356;19.448;2023-04-15T00:33:48;3.70;;;1.45;;
68273;SDS011;55104;47.356;19.448;2023-04-15T00:36:50;3.83;;;1.17;;
68273;SDS011;55104;47.356;19.448;2023-04-15T00:39:55;5.68;;;1.77;;
68273;SDS011;55104;47.356;19.448;2023-04-15T00:42:57;5.63;;;2.25;;
68273;SDS011;55104;47.356;19.448;2023-04-15T00:45:59;3.67;;;1.25;;
68273;SDS011;55104;47.356;19.448;2023-04-15T00:49:03;4.57;;;1.77;;
68273;SDS011;55104;47.356;19.448;2023-04-15T00:52:06;4.60;;;1.90;;
68273;SDS011;55104;47.356;19.448;2023-04-15T00:55:09;4.72;;;1.98;;
68273;SDS011;55104;47.356;19.448;2023-04-15T00:58:11;5.20;;;1.57;;
68273;SDS011;55104;47.356;19.448;2023-04-15T01:01:16;4.40;;;1.88;;
68273;SDS011;55104;47.356;19.448;2023-04-15T01:04:22;5.97;;;1.80;;
68273;SDS011;55104;47.356;19.448;2023-04-15T01:07:24;5.65;;;2.00;;
68273;SDS011;55104;47.356;19.448;2023-04-15T01:10:27;5.20;;;2.33;;
68273;SDS011;55104;47.356;19.448;2023-04-15T01:13:29;6.72;;;2.50;;
68273;SDS011;55104;47.356;19.448;2023-04-15T01:16:35;6.70;;;2.53;;
68273;SDS011;55104;47.356;19.448;2023-04-15T01:19:40;4.27;;;1.87;;
68273;SDS011;55104;47.356;19.448;2023-04-15T01:22:42;4.03;;;1.20;;
68273;SDS011;55104;47.356;19.448;2023-04-15T01:25:45;3.70;;;1.65;;
68273;SDS011;55104;47.356;19.448;2023-04-15T01:28:48;4.18;;;1.75;;
68273;SDS011;55104;47.356;19.448;2023-04-15T01:31:51;5.83;;;1.63;;
68273;SDS011;55104;47.356;19.448;2023-04-15T01:34:54;3.08;;;1.00;;
68273;SDS011;55104;47.356;19.448;2023-04-15T01:38:00;4.63;;;1.05;;
68273;SDS011;55104;47.356;19.448;2023-04-15T01:41:07;4.65;;;1.80;;
68273;SDS011;55104;47.356;19.448;2023-04-15T01:44:09;2.95;;;1.27;;
68273;SDS011;55104;47.356;19.448;2023-04-15T01:47:13;2.58;;;1.25;;
68273;SDS011;55104;47.356;19.448;2023-04-15T01:50:15;2.85;;;0.95;;
68273;SDS011;55104;47.356;19.448;2023-04-15T01:53:17;3.30;;;0.90;;
68273;SDS011;55104;47.356;19.448;2023-04-15T01:56:20;3.25;;;1.17;;
68273;SDS011;55104;47.356;19.448;2023-04-15T01:59:22;4.55;;;1.77;;
68273;SDS011;55104;47.356;19.448;2023-04-15T02:02:24;4.57;;;1.40;;
68273;SDS011;55104;47.356;19.448;2023-04-15T02:05:29;3.38;;;1.23;;
68273;SDS011;55104;47.356;19.448;2023-04-15T02:08:31;3.20;;;0.98;;
68273;SDS011;55104;47.356;19.448;2023-04-15T02:11:34;3.67;;;1.38;;
68273;SDS011;55104;47.356;19.448;2023-04-15T02:14:38;2.15;;;0.80;;
68273;SDS011;55104;47.356;19.448;2023-04-15T02:17:40;5.07;;;1.70;;
68273;SDS011;55104;47.356;19.448;2023-04-15T02:20:49;4.75;;;1.40;;
68273;SDS011;55104;47.356;19.448;2023-04-15T02:23:52;5.33;;;1.67;;
68273;SDS011;55104;47.356;19.448;2023-04-15T02:26:55;4.97;;;1.27;;
68273;SDS011;55104;47.356;19.448;2023-04-15T02:29:57;4.50;;;1.63;;
68273;SDS011;55104;47.356;19.448;2023-04-15T02:33:00;4.00;;;1.33;;
68273;SDS011;55104;47.356;19.448;2023-04-15T02:36:03;4.50;;;1.10;;
68273;SDS011;55104;47.356;19.448;2023-04-15T02:39:05;4.82;;;1.10;;
68273;SDS011;55104;47.356;19.448;2023-04-15T02:42:08;3.17;;;1.30;;
68273;SDS011;55104;47.356;19.448;2023-04-15T02:45:10;3.83;;;1.30;;
68273;SDS011;55104;47.356;19.448;2023-04-15T02:48:14;4.22;;;1.25;;
68273;SDS011;55104;47.356;19.448;2023-04-15T02:51:19;4.32;;;0.95;;
68273;SDS011;55104;47.356;19.448;2023-04-15T02:54:23;4.13;;;1.83;;
68273;SDS011;55104;47.356;19.448;2023-04-15T02:57:26;5.07;;;1.52;;
68273;SDS011;55104;47.356;19.448;2023-04-15T03:00:32;6.85;;;2.08;;
68273;SDS011;55104;47.356;19.448;2023-04-15T03:03:34;5.07;;;2.03;;
68273;SDS011;55104;47.356;19.448;2023-04-15T03:06:44;5.00;;;2.20;;
68273;SDS011;55104;47.356;19.448;2023-04-15T03:09:46;6.45;;;2.15;;
68273;SDS011;55104;47.356;19.448;2023-04-15T03:12:49;3.67;;;1.00;;
68273;SDS011;55104;47.356;19.448;2023-04-15T03:15:54;4.65;;;1.20;;
68273;SDS011;55104;47.356;19.448;2023-04-15T03:18:57;4.83;;;1.90;;
68273;SDS011;55104;47.356;19.448;2023-04-15T03:21:59;2.92;;;1.27;;
68273;SDS011;55104;47.356;19.448;2023-04-15T03:25:02;4.65;;;1.52;;
68273;SDS011;55104;47.356;19.448;2023-04-15T03:28:06;5.53;;;1.77;;
68273;SDS011;55104;47.356;19.448;2023-04-15T03:31:08;4.20;;;1.70;;
68273;SDS011;55104;47.356;19.448;2023-04-15T03:34:10;3.92;;;1.52;;
68273;SDS011;55104;47.356;19.448;2023-04-15T03:37:12;5.53;;;2.40;;
68273;SDS011;55104;47.356;19.448;2023-04-15T03:40:14;7.05;;;1.58;;
68273;SDS011;55104;47.356;19.448;2023-04-15T03:43:16;6.15;;;1.95;;
68273;SDS011;55104;47.356;19.448;2023-04-15T03:46:18;7.05;;;2.00;;
68273;SDS011;55104;47.356;19.448;2023-04-15T03:49:21;6.93;;;2.30;;
68273;SDS011;55104;47.356;19.448;2023-04-15T03:52:23;6.87;;;2.10;;
68273;SDS011;55104;47.356;19.448;2023-04-15T03:55:26;4.88;;;1.75;;
68273;SDS011;55104;47.356;19.448;2023-04-15T03:58:28;5.10;;;1.77;;
68273;SDS011;55104;47.356;19.448;2023-04-15T04:01:30;8.25;;;1.70;;
68273;SDS011;55104;47.356;19.448;2023-04-15T04:04:32;6.43;;;1.40;;
68273;SDS011;55104;47.356;19.448;2023-04-15T04:07:34;5.95;;;1.92;;
68273;SDS011;55104;47.356;19.448;2023-04-15T04:10:37;5.53;;;1.85;;
68273;SDS011;55104;47.356;19.448;2023-04-15T04:13:39;8.70;;;3.07;;
68273;SDS011;55104;47.356;19.448;2023-04-15T04:16:41;10.48;;;4.15;;
68273;SDS011;55104;47.356;19.448;2023-04-15T04:19:43;5.43;;;2.28;;
68273;SDS011;55104;47.356;19.448;2023-04-15T04:22:45;6.95;;;2.35;;
68273;SDS011;55104;47.356;19.448;2023-04-15T04:25:47;5.10;;;2.07;;
68273;SDS011;55104;47.356;19.448;2023-04-15T04:28:49;4.72;;;1.30;;
68273;SDS011;55104;47.356;19.448;2023-04-15T04:31:51;7.57;;;3.03;;
68273;SDS011;55104;47.356;19.448;2023-04-15T04:34:53;6.57;;;2.22;;
68273;SDS011;55104;47.356;19.448;2023-04-15T04:37:59;7.00;;;2.70;;
68273;SDS011;55104;47.356;19.448;2023-04-15T04:41:01;9.52;;;3.28;;
68273;SDS011;55104;47.356;19.448;2023-04-15T04:44:03;9.70;;;3.25;;
68273;SDS011;55104;47.356;19.448;2023-04-15T04:47:05;10.07;;;3.15;;
68273;SDS011;55104;47.356;19.448;2023-04-15T04:50:08;5.37;;;2.50;;
68273;SDS011;55104;47.356;19.448;2023-04-15T04:53:11;7.55;;;2.47;;
68273;SDS011;55104;47.356;19.448;2023-04-15T04:56:13;9.27;;;3.40;;
68273;SDS011;55104;47.356;19.448;2023-04-15T04:59:15;6.45;;;2.17;;
68273;SDS011;55104;47.356;19.448;2023-04-15T05:02:19;3.43;;;1.33;;
68273;SDS011;55104;47.356;19.448;2023-04-15T05:05:21;3.97;;;1.45;;
68273;SDS011;55104;47.356;19.448;2023-04-15T05:08:23;6.80;;;2.80;;
68273;SDS011;55104;47.356;19.448;2023-04-15T05:11:25;4.85;;;1.95;;
68273;SDS011;55104;47.356;19.448;2023-04-15T05:14:27;5.87;;;2.23;;
68273;SDS011;55104;47.356;19.448;2023-04-15T05:17:29;7.70;;;2.83;;
68273;SDS011;55104;47.356;19.448;2023-04-15T05:20:32;4.07;;;1.55;;
68273;SDS011;55104;47.356;19.448;2023-04-15T05:23:38;4.38;;;1.45;;
68273;SDS011;55104;47.356;19.448;2023-04-15T05:26:41;5.77;;;1.43;;
68273;SDS011;55104;47.356;19.448;2023-04-15T05:29:43;5.18;;;1.98;;
68273;SDS011;55104;47.356;19.448;2023-04-15T05:32:45;4.97;;;1.05;;
68273;SDS011;55104;47.356;19.448;2023-04-15T05:35:47;5.00;;;1.55;;
68273;SDS011;55104;47.356;19.448;2023-04-15T05:38:50;7.00;;;2.28;;
68273;SDS011;55104;47.356;19.448;2023-04-15T05:41:52;3.63;;;1.05;;
68273;SDS011;55104;47.356;19.448;2023-04-15T05:44:54;4.28;;;1.23;;
68273;SDS011;55104;47.356;19.448;2023-04-15T05:47:56;5.17;;;1.67;;
68273;SDS011;55104;47.356;19.448;2023-04-15T05:50:58;4.70;;;1.20;;
68273;SDS011;55104;47.356;19.448;2023-04-15T05:54:00;4.45;;;1.73;;
68273;SDS011;55104;47.356;19.448;2023-04-15T05:57:02;7.80;;;1.83;;
68273;SDS011;55104;47.356;19.448;2023-04-15T06:00:05;5.07;;;1.40;;
68273;SDS011;55104;47.356;19.448;2023-04-15T06:03:10;4.53;;;1.55;;
68273;SDS011;55104;47.356;19.448;2023-04-15T06:06:12;5.68;;;1.95;;
68273;SDS011;55104;47.356;19.448;2023-04-15T06:09:14;4.72;;;1.50;;
68273;SDS011;55104;47.356;19.448;2023-04-15T06:12:17;3.37;;;1.00;;
68273;SDS011;55104;47.356;19.448;2023-04-15T06:15:19;12.30;;;1.27;;
68273;SDS011;55104;47.356;19.448;2023-04-15T06:18:21;4.38;;;1.65;;
68273;SDS011;55104;47.356;19.448;2023-04-15T06:21:23;3.10;;;0.95;;
68273;SDS011;55104;47.356;19.448;2023-04-15T06:24:25;2.60;;;1.02;;
68273;SDS011;55104;47.356;19.448;2023-04-15T06:27:27;4.65;;;1.55;;
68273;SDS011;55104;47.356;19.448;2023-04-15T06:30:29;2.60;;;1.00;;
68273;SDS011;55104;47.356;19.448;2023-04-15T06:33:31;3.13;;;1.10;;
68273;SDS011;55104;47.356;19.448;2023-04-15T06:36:33;4.38;;;0.82;;
68273;SDS011;55104;47.356;19.448;2023-04-15T06:39:35;4.13;;;1.58;;
68273;SDS011;55104;47.356;19.448;2023-04-15T06:42:38;6.78;;;1.40;;
68273;SDS011;55104;47.356;19.448;2023-04-15T06:45:40;2.03;;;0.60;;
68273;SDS011;55104;47.356;19.448;2023-04-15T06:48:42;4.60;;;1.35;;
68273;SDS011;55104;47.356;19.448;2023-04-15T06:51:44;3.55;;;1.02;;
68273;SDS011;55104;47.356;19.448;2023-04-15T06:54:46;6.70;;;1.38;;
68273;SDS011;55104;47.356;19.448;2023-04-15T06:57:48;2.95;;;1.00;;
68273;SDS011;55104;47.356;19.448;2023-04-15T07:00:51;6.32;;;1.05;;
68273;SDS011;55104;47.356;19.448;2023-04-15T07:03:53;3.53;;;1.10;;
68273;SDS011;55104;47.356;19.448;2023-04-15T07:06:55;4.10;;;1.17;;
68273;SDS011;55104;47.356;19.448;2023-04-15T07:09:58;2.50;;;0.75;;
68273;SDS011;55104;47.356;19.448;2023-04-15T07:13:00;4.03;;;1.00;;
68273;SDS011;55104;47.356;19.448;2023-04-15T07:16:02;2.60;;;0.85;;
68273;SDS011;55104;47.356;19.448;2023-04-15T07:19:05;4.32;;;0.90;;
68273;SDS011;55104;47.356;19.448;2023-04-15T07:22:07;2.70;;;0.57;;
68273;SDS011;55104;47.356;19.448;2023-04-15T07:25:09;2.10;;;0.43;;
68273;SDS011;55104;47.356;19.448;2023-04-15T07:28:11;1.88;;;0.50;;
68273;SDS011;55104;47.356;19.448;2023-04-15T07:31:13;0.73;;;0.20;;
68273;SDS011;55104;47.356;19.448;2023-04-15T07:34:18;1.70;;;0.35;;
68273;SDS011;55104;47.356;19.448;2023-04-15T07:37:20;1.60;;;0.43;;
68273;SDS011;55104;47.356;19.448;2023-04-15T07:40:22;1.42;;;0.38;;
68273;SDS011;55104;47.356;19.448;2023-04-15T07:43:24;1.60;;;0.43;;
68273;SDS011;55104;47.356;19.448;2023-04-15T07:46:26;1.60;;;0.50;;
68273;SDS011;55104;47.356;19.448;2023-04-15T07:49:29;4.10;;;0.47;;
68273;SDS011;55104;47.356;19.448;2023-04-15T07:52:31;3.80;;;0.60;;
68273;SDS011;55104;47.356;19.448;2023-04-15T07:55:39;2.13;;;0.47;;
68273;SDS011;55104;47.356;19.448;2023-04-15T07:58:41;1.80;;;0.43;;
68273;SDS011;55104;47.356;19.448;2023-04-15T08:01:44;1.20;;;0.30;;
68273;SDS011;55104;47.356;19.448;2023-04-15T08:04:46;1.92;;;0.45;;
68273;SDS011;55104;47.356;19.448;2023-04-15T08:07:49;5.30;;;1.20;;
68273;SDS011;55104;47.356;19.448;2023-04-15T08:10:52;1.85;;;0.28;;
68273;SDS011;55104;47.356;19.448;2023-04-15T08:13:54;2.08;;;0.55;;
68273;SDS011;55104;47.356;19.448;2023-04-15T08:16:56;2.17;;;0.98;;
68273;SDS011;55104;47.356;19.448;2023-04-15T08:19:58;1.33;;;0.40;;
68273;SDS011;55104;47.356;19.448;2023-04-15T08:23:00;2.17;;;0.30;;
68273;SDS011;55104;47.356;19.448;2023-04-15T08:26:02;1.48;;;0.43;;
68273;SDS011;55104;47.356;19.448;2023-04-15T08:29:04;1.25;;;0.40;;
68273;SDS011;55104;47.356;19.448;2023-04-15T08:32:07;1.98;;;0.60;;
68273;SDS011;55104;47.356;19.448;2023-04-15T08:35:10;1.60;;;0.30;;
68273;SDS011;55104;47.356;19.448;2023-04-15T08:38:12;2.23;;;0.40;;
68273;SDS011;55104;47.356;19.448;2023-04-15T08:41:21;2.05;;;0.45;;
68273;SDS011;55104;47.356;19.448;2023-04-15T08:44:24;1.05;;;0.30;;
68273;SDS011;55104;47.356;19.448;2023-04-15T08:47:30;1.48;;;0.40;;
68273;SDS011;55104;47.356;19.448;2023-04-15T08:50:32;1.17;;;0.30;;
68273;SDS011;55104;47.356;19.448;2023-04-15T08:53:35;0.93;;;0.27;;
68273;SDS011;55104;47.356;19.448;2023-04-15T08:56:38;3.80;;;0.35;;
68273;SDS011;55104;47.356;19.448;2023-04-15T08:59:41;2.05;;;0.35;;
68273;SDS011;55104;47.356;19.448;2023-04-15T09:02:44;1.20;;;0.43;;
68273;SDS011;55104;47.356;19.448;2023-04-15T09:05:47;1.67;;;0.50;;
68273;SDS011;55104;47.356;19.448;2023-04-15T09:08:51;1.90;;;0.37;;
68273;SDS011;55104;47.356;19.448;2023-04-15T09:11:54;1.98;;;0.40;;
68273;SDS011;55104;47.356;19.448;2023-04-15T09:14:56;3.45;;;0.60;;
68273;SDS011;55104;47.356;19.448;2023-04-15T09:17:58;0.95;;;0.30;;
68273;SDS011;55104;47.356;19.448;2023-04-15T09:24:07;2.63;;;0.30;;
68273;SDS011;55104;47.356;19.448;2023-04-15T09:27:09;2.03;;;0.38;;
68273;SDS011;55104;47.356;19.448;2023-04-15T09:30:11;2.10;;;0.40;;
68273;SDS011;55104;47.356;19.448;2023-04-15T09:33:13;1.30;;;0.40;;
68273;SDS011;55104;47.356;19.448;2023-04-15T09:36:16;1.52;;;0.47;;
68273;SDS011;55104;47.356;19.448;2023-04-15T09:39:18;1.20;;;0.40;;
68273;SDS011;55104;47.356;19.448;2023-04-15T09:42:20;3.03;;;1.02;;
68273;SDS011;55104;47.356;19.448;2023-04-15T09:45:27;2.17;;;0.85;;
68273;SDS011;55104;47.356;19.448;2023-04-15T09:48:30;2.35;;;0.65;;
68273;SDS011;55104;47.356;19.448;2023-04-15T09:51:36;1.40;;;0.40;;
68273;SDS011;55104;47.356;19.448;2023-04-15T09:54:38;2.87;;;0.90;;
68273;SDS011;55104;47.356;19.448;2023-04-15T09:57:40;2.28;;;0.65;;
68273;SDS011;55104;47.356;19.448;2023-04-15T10:00:43;1.83;;;0.50;;
68273;SDS011;55104;47.356;19.448;2023-04-15T10:03:45;7.93;;;0.85;;
68273;SDS011;55104;47.356;19.448;2023-04-15T10:06:48;2.08;;;0.65;;
68273;SDS011;55104;47.356;19.448;2023-04-15T10:09:50;1.87;;;0.67;;
68273;SDS011;55104;47.356;19.448;2023-04-15T10:12:52;1.65;;;0.40;;
68273;SDS011;55104;47.356;19.448;2023-04-15T10:19:07;2.13;;;0.85;;
68273;SDS011;55104;47.356;19.448;2023-04-15T10:22:10;1.00;;;0.20;;
68273;SDS011;55104;47.356;19.448;2023-04-15T10:25:12;0.77;;;0.20;;
68273;SDS011;55104;47.356;19.448;2023-04-15T10:28:16;2.55;;;0.55;;
68273;SDS011;55104;47.356;19.448;2023-04-15T10:31:18;1.50;;;0.38;;
68273;SDS011;55104;47.356;19.448;2023-04-15T10:34:21;0.77;;;0.30;;
68273;SDS011;55104;47.356;19.448;2023-04-15T10:37:35;0.63;;;0.28;;
68273;SDS011;55104;47.356;19.448;2023-04-15T10:40:38;0.83;;;0.30;;
68273;SDS011;55104;47.356;19.448;2023-04-15T10:43:59;1.05;;;0.30;;
68273;SDS011;55104;47.356;19.448;2023-04-15T10:47:10;1.40;;;0.35;;
68273;SDS011;55104;47.356;19.448;2023-04-15T10:50:14;0.88;;;0.20;;
68273;SDS011;55104;47.356;19.448;2023-04-15T10:53:21;1.30;;;0.20;;
68273;SDS011;55104;47.356;19.448;2023-04-15T10:56:29;0.97;;;0.20;;
68273;SDS011;55104;47.356;19.448;2023-04-15T10:59:37;0.93;;;0.20;;
68273;SDS011;55104;47.356;19.448;2023-04-15T11:03:06;1.35;;;0.30;;
68273;SDS011;55104;47.356;19.448;2023-04-15T11:06:10;0.60;;;0.20;;
68273;SDS011;55104;47.356;19.448;2023-04-15T11:12:44;2.17;;;0.40;;
68273;SDS011;55104;47.356;19.448;2023-04-15T11:15:47;0.52;;;0.25;;
68273;SDS011;55104;47.356;19.448;2023-04-15T11:18:55;1.08;;;0.30;;
68273;SDS011;55104;47.356;19.448;2023-04-15T11:22:05;0.52;;;0.20;;
68273;SDS011;55104;47.356;19.448;2023-04-15T11:25:08;0.65;;;0.20;;
68273;SDS011;55104;47.356;19.448;2023-04-15T11:28:10;0.40;;;0.10;;
68273;SDS011;55104;47.356;19.448;2023-04-15T11:31:14;0.88;;;0.20;;
68273;SDS011;55104;47.356;19.448;2023-04-15T11:34:21;0.88;;;0.30;;
68273;SDS011;55104;47.356;19.448;2023-04-15T11:37:28;1.10;;;0.30;;
68273;SDS011;55104;47.356;19.448;2023-04-15T11:40:30;0.68;;;0.20;;
68273;SDS011;55104;47.356;19.448;2023-04-15T11:43:36;0.77;;;0.20;;
68273;SDS011;55104;47.356;19.448;2023-04-15T11:46:38;0.32;;;0.13;;
68273;SDS011;55104;47.356;19.448;2023-04-15T11:49:39;1.33;;;0.32;;
68273;SDS011;55104;47.356;19.448;2023-04-15T11:52:58;0.80;;;0.20;;
68273;SDS011;55104;47.356;19.448;2023-04-15T11:56:09;0.80;;;0.20;;
68273;SDS011;55104;47.356;19.448;2023-04-15T11:59:17;0.60;;;0.30;;
68273;SDS011;55104;47.356;19.448;2023-04-15T12:02:20;2.13;;;0.52;;
68273;SDS011;55104;47.356;19.448;2023-04-15T12:05:32;4.07;;;1.45;;
68273;SDS011;55104;47.356;19.448;2023-04-15T12:12:02;1.67;;;0.40;;
68273;SDS011;55104;47.356;19.448;2023-04-15T12:15:04;2.53;;;0.60;;
68273;SDS011;55104;47.356;19.448;2023-04-15T12:18:17;0.90;;;0.40;;
68273;SDS011;55104;47.356;19.448;2023-04-15T12:21:20;1.42;;;0.40;;
68273;SDS011;55104;47.356;19.448;2023-04-15T12:24:24;1.13;;;0.38;;
68273;SDS011;55104;47.356;19.448;2023-04-15T12:27:26;4.07;;;0.45;;
68273;SDS011;55104;47.356;19.448;2023-04-15T12:30:30;1.77;;;0.40;;
68273;SDS011;55104;47.356;19.448;2023-04-15T12:33:33;1.48;;;0.40;;
68273;SDS011;55104;47.356;19.448;2023-04-15T12:36:35;1.98;;;0.30;;
68273;SDS011;55104;47.356;19.448;2023-04-15T12:39:38;0.80;;;0.20;;
68273;SDS011;55104;47.356;19.448;2023-04-15T12:42:42;1.05;;;0.30;;
68273;SDS011;55104;47.356;19.448;2023-04-15T12:45:44;0.27;;;0.20;;
68273;SDS011;55104;47.356;19.448;2023-04-15T12:48:46;0.93;;;0.30;;
68273;SDS011;55104;47.356;19.448;2023-04-15T12:51:48;1.63;;;0.60;;
68273;SDS011;55104;47.356;19.448;2023-04-15T12:54:52;0.68;;;0.25;;
68273;SDS011;55104;47.356;19.448;2023-04-15T12:57:54;1.00;;;0.30;;
68273;SDS011;55104;47.356;19.448;2023-04-15T13:00:56;1.43;;;0.40;;
68273;SDS011;55104;47.356;19.448;2023-04-15T13:03:58;1.60;;;0.25;;
68273;SDS011;55104;47.356;19.448;2023-04-15T13:07:00;0.80;;;0.30;;
68273;SDS011;55104;47.356;19.448;2023-04-15T13:10:03;4.03;;;1.00;;
68273;SDS011;55104;47.356;19.448;2023-04-15T13:13:05;1.83;;;0.40;;
68273;SDS011;55104;47.356;19.448;2023-04-15T13:16:07;0.80;;;0.30;;
68273;SDS011;55104;47.356;19.448;2023-04-15T13:19:10;2.53;;;0.70;;
68273;SDS011;55104;47.356;19.448;2023-04-15T13:22:12;2.70;;;0.63;;
68273;SDS011;55104;47.356;19.448;2023-04-15T13:25:15;1.65;;;0.50;;
68273;SDS011;55104;47.356;19.448;2023-04-15T13:28:17;2.38;;;0.55;;
68273;SDS011;55104;47.356;19.448;2023-04-15T13:31:19;2.17;;;0.60;;
68273;SDS011;55104;47.356;19.448;2023-04-15T13:34:22;1.13;;;0.35;;
68273;SDS011;55104;47.356;19.448;2023-04-15T13:37:27;1.42;;;0.32;;
68273;SDS011;55104;47.356;19.448;2023-04-15T13:40:30;1.35;;;0.40;;
68273;SDS011;55104;47.356;19.448;2023-04-15T13:43:32;1.85;;;0.50;;
68273;SDS011;55104;47.356;19.448;2023-04-15T13:46:34;2.43;;;0.60;;
68273;SDS011;55104;47.356;19.448;2023-04-15T13:49:37;2.92;;;0.60;;
68273;SDS011;55104;47.356;19.448;2023-04-15T13:52:39;4.43;;;1.23;;
68273;SDS011;55104;47.356;19.448;2023-04-15T13:55:41;2.05;;;0.50;;
68273;SDS011;55104;47.356;19.448;2023-04-15T13:58:43;2.30;;;0.68;;
68273;SDS011;55104;47.356;19.448;2023-04-15T14:01:45;1.67;;;0.50;;
68273;SDS011;55104;47.356;19.448;2023-04-15T14:04:47;2.95;;;0.77;;
68273;SDS011;55104;47.356;19.448;2023-04-15T14:07:50;4.28;;;1.45;;
68273;SDS011;55104;47.356;19.448;2023-04-15T14:10:52;4.40;;;1.10;;
68273;SDS011;55104;47.356;19.448;2023-04-15T14:13:54;2.15;;;0.60;;
68273;SDS011;55104;47.356;19.448;2023-04-15T14:16:56;3.20;;;0.70;;
68273;SDS011;55104;47.356;19.448;2023-04-15T14:19:59;8.38;;;3.08;;
68273;SDS011;55104;47.356;19.448;2023-04-15T14:23:01;6.03;;;1.52;;
68273;SDS011;55104;47.356;19.448;2023-04-15T14:26:03;2.40;;;0.50;;
68273;SDS011;55104;47.356;19.448;2023-04-15T14:29:06;2.20;;;0.52;;
68273;SDS011;55104;47.356;19.448;2023-04-15T14:32:09;3.33;;;0.87;;
68273;SDS011;55104;47.356;19.448;2023-04-15T14:35:13;1.90;;;0.40;;
68273;SDS011;55104;47.356;19.448;2023-04-15T14:38:15;3.90;;;0.82;;
68273;SDS011;55104;47.356;19.448;2023-04-15T14:41:17;4.88;;;1.45;;
68273;SDS011;55104;47.356;19.448;2023-04-15T14:44:19;4.30;;;1.08;;
68273;SDS011;55104;47.356;19.448;2023-04-15T14:47:21;6.80;;;1.30;;
68273;SDS011;55104;47.356;19.448;2023-04-15T14:50:24;3.03;;;1.20;;
68273;SDS011;55104;47.356;19.448;2023-04-15T14:53:26;4.72;;;1.33;;
68273;SDS011;55104;47.356;19.448;2023-04-15T14:56:28;3.40;;;0.93;;
68273;SDS011;55104;47.356;19.448;2023-04-15T14:59:30;4.32;;;1.23;;
68273;SDS011;55104;47.356;19.448;2023-04-15T15:02:33;2.00;;;0.63;;
68273;SDS011;55104;47.356;19.448;2023-04-15T15:05:41;2.58;;;0.60;;
68273;SDS011;55104;47.356;19.448;2023-04-15T15:08:44;2.83;;;0.68;;
68273;SDS011;55104;47.356;19.448;2023-04-15T15:11:46;2.47;;;0.70;;
68273;SDS011;55104;47.356;19.448;2023-04-15T15:14:48;1.25;;;0.45;;
68273;SDS011;55104;47.356;19.448;2023-04-15T15:17:50;2.67;;;0.53;;
68273;SDS011;55104;47.356;19.448;2023-04-15T15:20:53;2.65;;;0.68;;
68273;SDS011;55104;47.356;19.448;2023-04-15T15:23:55;3.65;;;0.80;;
68273;SDS011;55104;47.356;19.448;2023-04-15T15:26:57;1.55;;;0.40;;
68273;SDS011;55104;47.356;19.448;2023-04-15T15:29:59;2.67;;;0.80;;
68273;SDS011;55104;47.356;19.448;2023-04-15T15:33:01;2.33;;;0.40;;
68273;SDS011;55104;47.356;19.448;2023-04-15T15:36:08;2.72;;;0.80;;
68273;SDS011;55104;47.356;19.448;2023-04-15T15:39:11;2.17;;;0.55;;
68273;SDS011;55104;47.356;19.448;2023-04-15T15:42:13;3.35;;;0.90;;
68273;SDS011;55104;47.356;19.448;2023-04-15T15:45:15;1.73;;;0.60;;
68273;SDS011;55104;47.356;19.448;2023-04-15T15:48:17;3.23;;;1.00;;
68273;SDS011;55104;47.356;19.448;2023-04-15T15:51:19;2.13;;;0.50;;
68273;SDS011;55104;47.356;19.448;2023-04-15T15:54:21;2.90;;;1.02;;
68273;SDS011;55104;47.356;19.448;2023-04-15T15:57:23;3.75;;;0.98;;
68273;SDS011;55104;47.356;19.448;2023-04-15T16:00:25;2.85;;;1.05;;
68273;SDS011;55104;47.356;19.448;2023-04-15T16:03:27;3.87;;;1.23;;
68273;SDS011;55104;47.356;19.448;2023-04-15T16:06:30;4.80;;;1.10;;
68273;SDS011;55104;47.356;19.448;2023-04-15T16:09:35;2.42;;;0.73;;
68273;SDS011;55104;47.356;19.448;2023-04-15T16:12:38;2.80;;;0.77;;
68273;SDS011;55104;47.356;19.448;2023-04-15T16:15:41;3.70;;;0.90;;
68273;SDS011;55104;47.356;19.448;2023-04-15T16:18:44;2.43;;;0.70;;
68273;SDS011;55104;47.356;19.448;2023-04-15T16:21:46;3.45;;;0.80;;
68273;SDS011;55104;47.356;19.448;2023-04-15T16:24:48;6.53;;;1.13;;
68273;SDS011;55104;47.356;19.448;2023-04-15T16:27:51;3.95;;;1.13;;
68273;SDS011;55104;47.356;19.448;2023-04-15T16:31:06;3.08;;;0.85;;
68273;SDS011;55104;47.356;19.448;2023-04-15T16:34:09;3.30;;;1.00;;
68273;SDS011;55104;47.356;19.448;2023-04-15T16:37:12;3.85;;;0.95;;
68273;SDS011;55104;47.356;19.448;2023-04-15T16:40:14;4.25;;;1.27;;
68273;SDS011;55104;47.356;19.448;2023-04-15T16:43:16;3.95;;;0.95;;
68273;SDS011;55104;47.356;19.448;2023-04-15T16:46:18;3.57;;;1.00;;
68273;SDS011;55104;47.356;19.448;2023-04-15T16:49:21;6.18;;;1.38;;
68273;SDS011;55104;47.356;19.448;2023-04-15T16:52:23;5.40;;;1.33;;
68273;SDS011;55104;47.356;19.448;2023-04-15T16:55:25;4.00;;;1.13;;
68273;SDS011;55104;47.356;19.448;2023-04-15T16:58:27;3.38;;;0.63;;
68273;SDS011;55104;47.356;19.448;2023-04-15T17:01:30;2.17;;;0.60;;
68273;SDS011;55104;47.356;19.448;2023-04-15T17:04:32;2.72;;;0.65;;
68273;SDS011;55104;47.356;19.448;2023-04-15T17:07:35;3.63;;;0.65;;
68273;SDS011;55104;47.356;19.448;2023-04-15T17:10:37;2.47;;;0.88;;
68273;SDS011;55104;47.356;19.448;2023-04-15T17:13:39;2.15;;;0.73;;
68273;SDS011;55104;47.356;19.448;2023-04-15T17:16:42;2.73;;;0.70;;
68273;SDS011;55104;47.356;19.448;2023-04-15T17:19:44;2.90;;;0.93;;
68273;SDS011;55104;47.356;19.448;2023-04-15T17:22:46;2.83;;;0.70;;
68273;SDS011;55104;47.356;19.448;2023-04-15T17:25:49;3.15;;;0.82;;
68273;SDS011;55104;47.356;19.448;2023-04-15T17:28:52;6.38;;;1.30;;
68273;SDS011;55104;47.356;19.448;2023-04-15T17:31:54;4.37;;;1.63;;
68273;SDS011;55104;47.356;19.448;2023-04-15T17:34:56;6.10;;;1.90;;
68273;SDS011;55104;47.356;19.448;2023-04-15T17:37:59;7.70;;;1.83;;
68273;SDS011;55104;47.356;19.448;2023-04-15T17:41:01;4.28;;;1.48;;
68273;SDS011;55104;47.356;19.448;2023-04-15T17:44:03;7.13;;;2.08;;
68273;SDS011;55104;47.356;19.448;2023-04-15T17:47:05;15.20;;;8.37;;
68273;SDS011;55104;47.356;19.448;2023-04-15T17:50:07;15.25;;;8.85;;
68273;SDS011;55104;47.356;19.448;2023-04-15T17:53:10;10.75;;;5.32;;
68273;SDS011;55104;47.356;19.448;2023-04-15T17:56:12;9.07;;;3.30;;
68273;SDS011;55104;47.356;19.448;2023-04-15T17:59:14;7.78;;;2.40;;
68273;SDS011;55104;47.356;19.448;2023-04-15T18:02:17;6.83;;;2.27;;
68273;SDS011;55104;47.356;19.448;2023-04-15T18:05:19;5.70;;;1.90;;
68273;SDS011;55104;47.356;19.448;2023-04-15T18:08:22;8.75;;;3.20;;
68273;SDS011;55104;47.356;19.448;2023-04-15T18:11:24;17.35;;;5.53;;
68273;SDS011;55104;47.356;19.448;2023-04-15T18:14:26;13.35;;;4.25;;
68273;SDS011;55104;47.356;19.448;2023-04-15T18:17:35;13.00;;;5.27;;